sensor_id;sensor_type;location;lat;lon;timestamp;P1;durP1;ratioP1;P2;durP2;ratioP2
7519;SDS011;3801;48.876;10.184;2022-11-03T00:01:11;7.07;;;4.40;;
7519;SDS011;3801;48.876;10.184;2022-11-03T00:06:14;9.60;;;5.37;;
7519;SDS011;3801;48.876;10.184;2022-11-03T00:11:18;7.07;;;3.93;;
7519;SDS011;3801;48.876;10.184;2022-11-03T00:16:22;6.77;;;3.90;;
7519;SDS011;3801;48.876;10.184;2022-11-03T00:21:25;7.47;;;4.23;;
7519;SDS011;3801;48.876;10.184;2022-11-03T00:26:29;9.73;;;5.23;;
7519;SDS011;3801;48.876;10.184;2022-11-03T00:31:35;11.00;;;5.93;;
7519;SDS011;3801;48.876;10.184;2022-11-03T00:36:39;9.63;;;4.77;;
7519;SDS011;3801;48.876;10.184;2022-11-03T00:41:42;13.07;;;5.40;;
7519;SDS011;3801;48.876;10.184;2022-11-03T00:46:46;10.73;;;5.50;;
7519;SDS011;3801;48.876;10.184;2022-11-03T00:51:50;7.33;;;5.23;;
7519;SDS011;3801;48.876;10.184;2022-11-03T00:56:53;12.27;;;4.77;;
7519;SDS011;3801;48.876;10.184;2022-11-03T01:01:57;8.83;;;4.97;;
7519;SDS011;3801;48.876;10.184;2022-11-03T01:07:02;9.03;;;4.23;;
7519;SDS011;3801;48.876;10.184;2022-11-03T01:12:06;10.83;;;5.00;;
7519;SDS011;3801;48.876;10.184;2022-11-03T01:17:13;7.37;;;3.93;;
7519;SDS011;3801;48.876;10.184;2022-11-03T01:22:17;6.83;;;3.80;;
7519;SDS011;3801;48.876;10.184;2022-11-03T01:27:20;7.60;;;3.73;;
7519;SDS011;3801;48.876;10.184;2022-11-03T01:32:25;8.03;;;3.90;;
7519;SDS011;3801;48.876;10.184;2022-11-03T01:37:29;7.13;;;3.37;;
7519;SDS011;3801;48.876;10.184;2022-11-03T01:42:33;9.93;;;3.87;;
7519;SDS011;3801;48.876;10.184;2022-11-03T01:47:37;9.93;;;4.00;;
7519;SDS011;3801;48.876;10.184;2022-11-03T01:52:42;9.77;;;4.43;;
7519;SDS011;3801;48.876;10.184;2022-11-03T01:57:47;11.13;;;4.77;;
7519;SDS011;3801;48.876;10.184;2022-11-03T02:02:54;5.30;;;3.57;;
7519;SDS011;3801;48.876;10.184;2022-11-03T02:07:59;10.10;;;4.00;;
7519;SDS011;3801;48.876;10.184;2022-11-03T02:13:06;7.33;;;4.03;;
7519;SDS011;3801;48.876;10.184;2022-11-03T02:18:13;6.80;;;4.00;;
7519;SDS011;3801;48.876;10.184;2022-11-03T02:23:19;7.43;;;3.90;;
7519;SDS011;3801;48.876;10.184;2022-11-03T02:28:25;7.17;;;4.70;;
7519;SDS011;3801;48.876;10.184;2022-11-03T02:33:32;9.33;;;4.17;;
7519;SDS011;3801;48.876;10.184;2022-11-03T02:38:41;6.00;;;3.50;;
7519;SDS011;3801;48.876;10.184;2022-11-03T02:43:47;9.23;;;3.93;;
7519;SDS011;3801;48.876;10.184;2022-11-03T02:48:51;10.27;;;4.30;;
7519;SDS011;3801;48.876;10.184;2022-11-03T02:53:58;8.70;;;4.10;;
7519;SDS011;3801;48.876;10.184;2022-11-03T02:59:05;6.93;;;3.93;;
7519;SDS011;3801;48.876;10.184;2022-11-03T03:04:12;6.93;;;4.30;;
7519;SDS011;3801;48.876;10.184;2022-11-03T03:09:17;7.63;;;4.67;;
7519;SDS011;3801;48.876;10.184;2022-11-03T03:14:23;7.73;;;4.70;;
7519;SDS011;3801;48.876;10.184;2022-11-03T03:19:33;6.50;;;3.93;;
7519;SDS011;3801;48.876;10.184;2022-11-03T03:24:41;7.13;;;3.80;;
7519;SDS011;3801;48.876;10.184;2022-11-03T03:29:48;8.63;;;4.23;;
7519;SDS011;3801;48.876;10.184;2022-11-03T03:34:52;6.93;;;4.20;;
7519;SDS011;3801;48.876;10.184;2022-11-03T03:39:57;10.13;;;4.63;;
7519;SDS011;3801;48.876;10.184;2022-11-03T03:45:04;7.67;;;4.17;;
7519;SDS011;3801;48.876;10.184;2022-11-03T03:50:09;10.17;;;5.67;;
7519;SDS011;3801;48.876;10.184;2022-11-03T03:55:14;9.40;;;5.63;;
7519;SDS011;3801;48.876;10.184;2022-11-03T04:00:20;6.27;;;4.13;;
7519;SDS011;3801;48.876;10.184;2022-11-03T04:05:23;9.63;;;3.50;;
7519;SDS011;3801;48.876;10.184;2022-11-03T04:10:26;6.90;;;4.87;;
7519;SDS011;3801;48.876;10.184;2022-11-03T04:15:31;6.57;;;4.67;;
7519;SDS011;3801;48.876;10.184;2022-11-03T04:20:57;9.53;;;5.30;;
7519;SDS011;3801;48.876;10.184;2022-11-03T04:26:18;11.33;;;5.47;;
7519;SDS011;3801;48.876;10.184;2022-11-03T04:31:25;9.00;;;4.53;;
7519;SDS011;3801;48.876;10.184;2022-11-03T04:36:29;7.60;;;4.83;;
7519;SDS011;3801;48.876;10.184;2022-11-03T04:41:32;10.40;;;4.80;;
7519;SDS011;3801;48.876;10.184;2022-11-03T04:46:36;11.67;;;6.17;;
7519;SDS011;3801;48.876;10.184;2022-11-03T04:51:40;13.13;;;6.53;;
7519;SDS011;3801;48.876;10.184;2022-11-03T04:56:43;11.87;;;6.63;;
7519;SDS011;3801;48.876;10.184;2022-11-03T05:01:48;9.63;;;6.33;;
7519;SDS011;3801;48.876;10.184;2022-11-03T05:06:51;9.13;;;5.80;;
7519;SDS011;3801;48.876;10.184;2022-11-03T05:11:55;14.23;;;6.90;;
7519;SDS011;3801;48.876;10.184;2022-11-03T05:16:59;11.70;;;6.07;;
7519;SDS011;3801;48.876;10.184;2022-11-03T05:22:04;8.87;;;5.83;;
7519;SDS011;3801;48.876;10.184;2022-11-03T05:27:07;8.93;;;5.63;;
7519;SDS011;3801;48.876;10.184;2022-11-03T05:32:15;7.50;;;5.33;;
7519;SDS011;3801;48.876;10.184;2022-11-03T05:37:23;12.40;;;5.00;;
7519;SDS011;3801;48.876;10.184;2022-11-03T05:42:31;13.47;;;5.73;;
7519;SDS011;3801;48.876;10.184;2022-11-03T05:47:37;8.63;;;6.27;;
7519;SDS011;3801;48.876;10.184;2022-11-03T05:52:42;13.30;;;5.33;;
7519;SDS011;3801;48.876;10.184;2022-11-03T05:57:45;10.97;;;5.03;;
7519;SDS011;3801;48.876;10.184;2022-11-03T06:02:50;10.73;;;6.57;;
7519;SDS011;3801;48.876;10.184;2022-11-03T06:07:54;11.27;;;6.00;;
7519;SDS011;3801;48.876;10.184;2022-11-03T06:12:58;13.50;;;6.80;;
7519;SDS011;3801;48.876;10.184;2022-11-03T06:18:09;10.47;;;7.33;;
7519;SDS011;3801;48.876;10.184;2022-11-03T06:23:14;11.03;;;7.03;;
7519;SDS011;3801;48.876;10.184;2022-11-03T06:28:19;11.73;;;7.80;;
7519;SDS011;3801;48.876;10.184;2022-11-03T06:33:24;14.43;;;8.67;;
7519;SDS011;3801;48.876;10.184;2022-11-03T06:38:29;12.80;;;8.53;;
7519;SDS011;3801;48.876;10.184;2022-11-03T06:43:34;19.23;;;9.73;;
7519;SDS011;3801;48.876;10.184;2022-11-03T06:48:42;12.13;;;8.10;;
7519;SDS011;3801;48.876;10.184;2022-11-03T06:53:46;16.67;;;8.50;;
7519;SDS011;3801;48.876;10.184;2022-11-03T06:58:50;14.13;;;8.53;;
7519;SDS011;3801;48.876;10.184;2022-11-03T07:03:57;17.57;;;8.73;;
7519;SDS011;3801;48.876;10.184;2022-11-03T07:09:03;18.17;;;9.87;;
7519;SDS011;3801;48.876;10.184;2022-11-03T07:14:09;19.53;;;10.57;;
7519;SDS011;3801;48.876;10.184;2022-11-03T07:19:16;21.73;;;12.23;;
7519;SDS011;3801;48.876;10.184;2022-11-03T07:24:20;15.93;;;10.37;;
7519;SDS011;3801;48.876;10.184;2022-11-03T07:29:26;12.90;;;8.57;;
7519;SDS011;3801;48.876;10.184;2022-11-03T07:34:32;18.37;;;9.97;;
7519;SDS011;3801;48.876;10.184;2022-11-03T07:39:36;17.77;;;10.70;;
7519;SDS011;3801;48.876;10.184;2022-11-03T07:44:39;18.03;;;10.33;;
7519;SDS011;3801;48.876;10.184;2022-11-03T07:49:44;13.10;;;9.40;;
7519;SDS011;3801;48.876;10.184;2022-11-03T07:54:47;13.47;;;9.50;;
7519;SDS011;3801;48.876;10.184;2022-11-03T07:59:52;16.83;;;11.23;;
7519;SDS011;3801;48.876;10.184;2022-11-03T08:05:00;16.37;;;8.83;;
7519;SDS011;3801;48.876;10.184;2022-11-03T08:10:03;17.67;;;9.70;;
7519;SDS011;3801;48.876;10.184;2022-11-03T08:15:08;14.77;;;9.53;;
7519;SDS011;3801;48.876;10.184;2022-11-03T08:20:13;9.87;;;6.73;;
7519;SDS011;3801;48.876;10.184;2022-11-03T08:25:17;11.63;;;7.50;;
7519;SDS011;3801;48.876;10.184;2022-11-03T08:30:20;12.10;;;7.07;;
7519;SDS011;3801;48.876;10.184;2022-11-03T08:35:24;7.73;;;6.10;;
7519;SDS011;3801;48.876;10.184;2022-11-03T08:40:33;8.47;;;4.97;;
7519;SDS011;3801;48.876;10.184;2022-11-03T08:45:37;7.90;;;5.80;;
7519;SDS011;3801;48.876;10.184;2022-11-03T08:50:42;7.30;;;5.57;;
7519;SDS011;3801;48.876;10.184;2022-11-03T08:55:45;7.60;;;5.27;;
7519;SDS011;3801;48.876;10.184;2022-11-03T09:00:48;7.97;;;5.33;;
7519;SDS011;3801;48.876;10.184;2022-11-03T09:05:53;6.33;;;5.47;;
7519;SDS011;3801;48.876;10.184;2022-11-03T09:10:56;9.33;;;5.23;;
7519;SDS011;3801;48.876;10.184;2022-11-03T09:16:00;6.57;;;4.63;;
7519;SDS011;3801;48.876;10.184;2022-11-03T09:21:05;6.43;;;4.93;;
7519;SDS011;3801;48.876;10.184;2022-11-03T09:26:09;5.33;;;4.00;;
7519;SDS011;3801;48.876;10.184;2022-11-03T09:31:12;4.70;;;4.10;;
7519;SDS011;3801;48.876;10.184;2022-11-03T09:36:17;4.50;;;3.53;;
7519;SDS011;3801;48.876;10.184;2022-11-03T09:41:20;5.67;;;3.53;;
7519;SDS011;3801;48.876;10.184;2022-11-03T09:46:36;5.17;;;3.70;;
7519;SDS011;3801;48.876;10.184;2022-11-03T09:51:40;4.80;;;3.50;;
7519;SDS011;3801;48.876;10.184;2022-11-03T09:56:43;3.80;;;3.27;;
7519;SDS011;3801;48.876;10.184;2022-11-03T10:01:48;7.73;;;3.90;;
7519;SDS011;3801;48.876;10.184;2022-11-03T10:06:55;5.47;;;3.63;;
7519;SDS011;3801;48.876;10.184;2022-11-03T10:11:59;4.57;;;3.53;;
7519;SDS011;3801;48.876;10.184;2022-11-03T10:17:03;3.30;;;3.00;;
7519;SDS011;3801;48.876;10.184;2022-11-03T10:22:08;4.67;;;3.23;;
7519;SDS011;3801;48.876;10.184;2022-11-03T10:27:21;7.70;;;3.77;;
7519;SDS011;3801;48.876;10.184;2022-11-03T10:32:29;6.53;;;4.10;;
7519;SDS011;3801;48.876;10.184;2022-11-03T10:37:36;5.63;;;5.13;;
7519;SDS011;3801;48.876;10.184;2022-11-03T10:42:40;7.00;;;5.27;;
7519;SDS011;3801;48.876;10.184;2022-11-03T10:48:00;7.00;;;4.20;;
7519;SDS011;3801;48.876;10.184;2022-11-03T10:53:04;8.87;;;4.80;;
7519;SDS011;3801;48.876;10.184;2022-11-03T10:58:08;5.53;;;4.47;;
7519;SDS011;3801;48.876;10.184;2022-11-03T11:03:12;8.03;;;4.70;;
7519;SDS011;3801;48.876;10.184;2022-11-03T11:08:22;9.60;;;5.80;;
7519;SDS011;3801;48.876;10.184;2022-11-03T11:13:26;10.33;;;5.47;;
7519;SDS011;3801;48.876;10.184;2022-11-03T11:23:53;7.67;;;5.10;;
7519;SDS011;3801;48.876;10.184;2022-11-03T11:34:38;6.00;;;5.30;;
7519;SDS011;3801;48.876;10.184;2022-11-03T11:39:45;6.93;;;5.53;;
7519;SDS011;3801;48.876;10.184;2022-11-03T11:44:53;7.60;;;6.30;;
7519;SDS011;3801;48.876;10.184;2022-11-03T11:55:32;7.40;;;5.63;;
7519;SDS011;3801;48.876;10.184;2022-11-03T12:00:48;12.17;;;6.83;;
7519;SDS011;3801;48.876;10.184;2022-11-03T12:05:51;8.10;;;5.90;;
7519;SDS011;3801;48.876;10.184;2022-11-03T12:10:56;7.80;;;5.60;;
7519;SDS011;3801;48.876;10.184;2022-11-03T12:16:00;16.63;;;5.80;;
7519;SDS011;3801;48.876;10.184;2022-11-03T12:21:04;9.80;;;6.43;;
7519;SDS011;3801;48.876;10.184;2022-11-03T12:26:14;8.57;;;6.23;;
7519;SDS011;3801;48.876;10.184;2022-11-03T12:31:18;11.03;;;6.57;;
7519;SDS011;3801;48.876;10.184;2022-11-03T12:36:21;11.27;;;7.10;;
7519;SDS011;3801;48.876;10.184;2022-11-03T12:41:25;15.17;;;6.70;;
7519;SDS011;3801;48.876;10.184;2022-11-03T12:46:29;9.80;;;6.23;;
7519;SDS011;3801;48.876;10.184;2022-11-03T12:51:32;10.30;;;4.93;;
7519;SDS011;3801;48.876;10.184;2022-11-03T12:56:37;9.13;;;6.50;;
7519;SDS011;3801;48.876;10.184;2022-11-03T13:01:40;9.13;;;6.30;;
7519;SDS011;3801;48.876;10.184;2022-11-03T13:06:43;10.30;;;6.40;;
7519;SDS011;3801;48.876;10.184;2022-11-03T13:11:48;9.23;;;6.13;;
7519;SDS011;3801;48.876;10.184;2022-11-03T13:17:08;9.00;;;5.57;;
7519;SDS011;3801;48.876;10.184;2022-11-03T13:22:12;7.90;;;5.70;;
7519;SDS011;3801;48.876;10.184;2022-11-03T13:27:16;12.40;;;6.63;;
7519;SDS011;3801;48.876;10.184;2022-11-03T13:32:19;13.27;;;6.67;;
7519;SDS011;3801;48.876;10.184;2022-11-03T13:37:23;10.43;;;5.80;;
7519;SDS011;3801;48.876;10.184;2022-11-03T13:42:27;10.03;;;7.30;;
7519;SDS011;3801;48.876;10.184;2022-11-03T13:47:31;12.37;;;7.40;;
7519;SDS011;3801;48.876;10.184;2022-11-03T13:52:54;9.47;;;7.10;;
7519;SDS011;3801;48.876;10.184;2022-11-03T13:58:18;10.60;;;6.87;;
7519;SDS011;3801;48.876;10.184;2022-11-03T14:03:42;10.60;;;7.30;;
7519;SDS011;3801;48.876;10.184;2022-11-03T14:09:06;13.70;;;6.77;;
7519;SDS011;3801;48.876;10.184;2022-11-03T14:14:11;11.67;;;7.60;;
7519;SDS011;3801;48.876;10.184;2022-11-03T14:19:14;12.07;;;7.20;;
7519;SDS011;3801;48.876;10.184;2022-11-03T14:24:17;10.60;;;7.03;;
7519;SDS011;3801;48.876;10.184;2022-11-03T14:29:22;10.10;;;6.53;;
7519;SDS011;3801;48.876;10.184;2022-11-03T14:34:25;11.50;;;7.50;;
7519;SDS011;3801;48.876;10.184;2022-11-03T14:39:29;9.37;;;6.73;;
7519;SDS011;3801;48.876;10.184;2022-11-03T14:44:34;13.47;;;8.17;;
7519;SDS011;3801;48.876;10.184;2022-11-03T14:49:37;15.13;;;7.87;;
7519;SDS011;3801;48.876;10.184;2022-11-03T14:54:41;15.20;;;9.33;;
7519;SDS011;3801;48.876;10.184;2022-11-03T14:59:45;11.20;;;7.97;;
7519;SDS011;3801;48.876;10.184;2022-11-03T15:04:54;13.90;;;8.17;;
7519;SDS011;3801;48.876;10.184;2022-11-03T15:09:57;13.07;;;9.30;;
7519;SDS011;3801;48.876;10.184;2022-11-03T15:15:02;11.83;;;8.87;;
7519;SDS011;3801;48.876;10.184;2022-11-03T15:20:06;13.53;;;8.23;;
7519;SDS011;3801;48.876;10.184;2022-11-03T15:25:09;11.50;;;7.40;;
7519;SDS011;3801;48.876;10.184;2022-11-03T15:30:19;17.67;;;9.93;;
7519;SDS011;3801;48.876;10.184;2022-11-03T15:35:22;16.83;;;10.10;;
7519;SDS011;3801;48.876;10.184;2022-11-03T15:40:25;15.00;;;9.57;;
7519;SDS011;3801;48.876;10.184;2022-11-03T15:45:30;18.17;;;10.27;;
7519;SDS011;3801;48.876;10.184;2022-11-03T15:50:36;12.00;;;7.17;;
7519;SDS011;3801;48.876;10.184;2022-11-03T15:55:39;18.60;;;10.37;;
7519;SDS011;3801;48.876;10.184;2022-11-03T16:00:44;12.57;;;8.17;;
7519;SDS011;3801;48.876;10.184;2022-11-03T16:05:47;12.27;;;8.60;;
7519;SDS011;3801;48.876;10.184;2022-11-03T16:10:51;9.53;;;6.60;;
7519;SDS011;3801;48.876;10.184;2022-11-03T16:16:00;12.70;;;7.63;;
7519;SDS011;3801;48.876;10.184;2022-11-03T16:21:04;13.43;;;10.17;;
7519;SDS011;3801;48.876;10.184;2022-11-03T16:26:07;14.07;;;9.03;;
7519;SDS011;3801;48.876;10.184;2022-11-03T16:31:11;9.20;;;6.17;;
7519;SDS011;3801;48.876;10.184;2022-11-03T16:36:15;12.97;;;8.63;;
7519;SDS011;3801;48.876;10.184;2022-11-03T16:41:18;11.20;;;8.10;;
7519;SDS011;3801;48.876;10.184;2022-11-03T16:46:23;9.83;;;6.47;;
7519;SDS011;3801;48.876;10.184;2022-11-03T16:51:26;10.27;;;8.37;;
7519;SDS011;3801;48.876;10.184;2022-11-03T16:56:30;9.83;;;6.70;;
7519;SDS011;3801;48.876;10.184;2022-11-03T17:01:35;8.07;;;6.50;;
7519;SDS011;3801;48.876;10.184;2022-11-03T17:06:39;8.93;;;7.33;;
7519;SDS011;3801;48.876;10.184;2022-11-03T17:11:43;8.60;;;7.37;;
7519;SDS011;3801;48.876;10.184;2022-11-03T17:16:47;12.10;;;7.97;;
7519;SDS011;3801;48.876;10.184;2022-11-03T17:21:51;12.77;;;8.97;;
7519;SDS011;3801;48.876;10.184;2022-11-03T17:26:55;9.27;;;7.27;;
7519;SDS011;3801;48.876;10.184;2022-11-03T17:32:00;10.17;;;7.43;;
7519;SDS011;3801;48.876;10.184;2022-11-03T17:37:04;10.80;;;7.27;;
7519;SDS011;3801;48.876;10.184;2022-11-03T17:42:12;8.10;;;5.50;;
7519;SDS011;3801;48.876;10.184;2022-11-03T17:47:18;12.50;;;8.20;;
7519;SDS011;3801;48.876;10.184;2022-11-03T17:52:22;10.00;;;7.80;;
7519;SDS011;3801;48.876;10.184;2022-11-03T17:57:29;9.77;;;5.63;;
7519;SDS011;3801;48.876;10.184;2022-11-03T18:02:33;7.43;;;5.50;;
7519;SDS011;3801;48.876;10.184;2022-11-03T18:07:38;8.83;;;6.00;;
7519;SDS011;3801;48.876;10.184;2022-11-03T18:12:44;8.93;;;4.90;;
7519;SDS011;3801;48.876;10.184;2022-11-03T18:18:14;9.30;;;6.73;;
7519;SDS011;3801;48.876;10.184;2022-11-03T18:23:18;8.23;;;4.37;;
7519;SDS011;3801;48.876;10.184;2022-11-03T18:28:21;13.73;;;6.57;;
7519;SDS011;3801;48.876;10.184;2022-11-03T18:33:28;9.60;;;6.80;;
7519;SDS011;3801;48.876;10.184;2022-11-03T18:38:32;12.03;;;8.97;;
7519;SDS011;3801;48.876;10.184;2022-11-03T18:43:37;9.10;;;7.20;;
7519;SDS011;3801;48.876;10.184;2022-11-03T18:48:41;11.30;;;8.43;;
7519;SDS011;3801;48.876;10.184;2022-11-03T18:53:44;11.17;;;7.33;;
7519;SDS011;3801;48.876;10.184;2022-11-03T18:58:48;15.33;;;7.13;;
7519;SDS011;3801;48.876;10.184;2022-11-03T19:03:53;11.73;;;7.37;;
7519;SDS011;3801;48.876;10.184;2022-11-03T19:08:58;9.57;;;6.20;;
7519;SDS011;3801;48.876;10.184;2022-11-03T19:14:03;12.67;;;8.67;;
7519;SDS011;3801;48.876;10.184;2022-11-03T19:19:09;11.83;;;6.70;;
7519;SDS011;3801;48.876;10.184;2022-11-03T19:24:13;9.03;;;6.90;;
7519;SDS011;3801;48.876;10.184;2022-11-03T19:29:17;10.07;;;6.93;;
7519;SDS011;3801;48.876;10.184;2022-11-03T19:34:24;12.53;;;7.57;;
7519;SDS011;3801;48.876;10.184;2022-11-03T19:39:29;12.47;;;7.80;;
7519;SDS011;3801;48.876;10.184;2022-11-03T19:44:34;12.77;;;7.20;;
7519;SDS011;3801;48.876;10.184;2022-11-03T19:49:38;13.17;;;7.37;;
7519;SDS011;3801;48.876;10.184;2022-11-03T19:54:42;8.30;;;7.03;;
7519;SDS011;3801;48.876;10.184;2022-11-03T19:59:47;8.63;;;7.67;;
7519;SDS011;3801;48.876;10.184;2022-11-03T20:04:51;10.40;;;6.10;;
7519;SDS011;3801;48.876;10.184;2022-11-03T20:09:55;10.67;;;7.17;;
7519;SDS011;3801;48.876;10.184;2022-11-03T20:14:58;8.10;;;6.10;;
7519;SDS011;3801;48.876;10.184;2022-11-03T20:20:03;10.53;;;7.30;;
7519;SDS011;3801;48.876;10.184;2022-11-03T20:25:08;13.40;;;6.73;;
7519;SDS011;3801;48.876;10.184;2022-11-03T20:30:14;12.03;;;6.20;;
7519;SDS011;3801;48.876;10.184;2022-11-03T20:35:20;7.10;;;5.47;;
7519;SDS011;3801;48.876;10.184;2022-11-03T20:40:26;6.23;;;4.37;;
7519;SDS011;3801;48.876;10.184;2022-11-03T20:45:29;6.03;;;3.70;;
7519;SDS011;3801;48.876;10.184;2022-11-03T20:50:34;7.33;;;5.83;;
7519;SDS011;3801;48.876;10.184;2022-11-03T20:55:38;7.87;;;5.07;;
7519;SDS011;3801;48.876;10.184;2022-11-03T21:00:41;6.03;;;4.90;;
7519;SDS011;3801;48.876;10.184;2022-11-03T21:05:46;4.30;;;3.30;;
7519;SDS011;3801;48.876;10.184;2022-11-03T21:10:49;4.87;;;3.23;;
7519;SDS011;3801;48.876;10.184;2022-11-03T21:15:53;6.03;;;2.70;;
7519;SDS011;3801;48.876;10.184;2022-11-03T21:21:26;4.73;;;2.47;;
7519;SDS011;3801;48.876;10.184;2022-11-03T21:26:30;3.37;;;2.77;;
7519;SDS011;3801;48.876;10.184;2022-11-03T21:31:33;3.97;;;2.60;;
7519;SDS011;3801;48.876;10.184;2022-11-03T21:36:38;3.90;;;2.40;;
7519;SDS011;3801;48.876;10.184;2022-11-03T21:41:41;10.73;;;5.97;;
7519;SDS011;3801;48.876;10.184;2022-11-03T21:47:02;12.97;;;8.10;;
7519;SDS011;3801;48.876;10.184;2022-11-03T21:52:06;5.47;;;3.67;;
7519;SDS011;3801;48.876;10.184;2022-11-03T21:57:10;4.70;;;3.47;;
7519;SDS011;3801;48.876;10.184;2022-11-03T22:02:15;7.00;;;4.07;;
7519;SDS011;3801;48.876;10.184;2022-11-03T22:07:20;10.70;;;5.70;;
7519;SDS011;3801;48.876;10.184;2022-11-03T22:12:23;6.67;;;4.37;;
7519;SDS011;3801;48.876;10.184;2022-11-03T22:17:26;6.23;;;3.50;;
7519;SDS011;3801;48.876;10.184;2022-11-03T22:22:31;9.70;;;4.30;;
7519;SDS011;3801;48.876;10.184;2022-11-03T22:27:51;4.67;;;3.50;;
7519;SDS011;3801;48.876;10.184;2022-11-03T22:32:55;9.50;;;3.33;;
7519;SDS011;3801;48.876;10.184;2022-11-03T22:38:00;7.10;;;3.20;;
7519;SDS011;3801;48.876;10.184;2022-11-03T22:43:04;6.03;;;3.00;;
7519;SDS011;3801;48.876;10.184;2022-11-03T22:48:36;7.00;;;3.80;;
7519;SDS011;3801;48.876;10.184;2022-11-03T22:53:41;9.67;;;3.40;;
7519;SDS011;3801;48.876;10.184;2022-11-03T22:59:02;4.10;;;3.20;;
7519;SDS011;3801;48.876;10.184;2022-11-03T23:04:05;4.93;;;3.10;;
7519;SDS011;3801;48.876;10.184;2022-11-03T23:09:10;3.13;;;2.30;;
7519;SDS011;3801;48.876;10.184;2022-11-03T23:14:13;4.23;;;2.40;;
7519;SDS011;3801;48.876;10.184;2022-11-03T23:19:17;3.70;;;2.57;;
7519;SDS011;3801;48.876;10.184;2022-11-03T23:24:39;3.10;;;2.27;;
7519;SDS011;3801;48.876;10.184;2022-11-03T23:29:59;4.30;;;2.57;;
7519;SDS011;3801;48.876;10.184;2022-11-03T23:35:03;2.47;;;1.87;;
7519;SDS011;3801;48.876;10.184;2022-11-03T23:40:08;3.60;;;2.60;;
7519;SDS011;3801;48.876;10.184;2022-11-03T23:45:12;3.63;;;3.03;;
7519;SDS011;3801;48.876;10.184;2022-11-03T23:50:32;5.60;;;3.80;;
7519;SDS011;3801;48.876;10.184;2022-11-03T23:55:37;5.77;;;3.93;;
